createdAt,value
2022-08-19T00:03:05.183Z,22.47
2022-08-19T00:05:35.467Z,21.52
2022-08-19T00:08:06.843Z,20.70
2022-08-19T00:10:39.666Z,20.95
2022-08-19T00:13:10.561Z,20.45
2022-08-19T00:15:40.801Z,21.05
2022-08-19T00:18:11.075Z,21.02
2022-08-19T00:20:41.903Z,21.92
2022-08-19T00:23:12.028Z,19.77
2022-08-19T00:25:45.135Z,20.40
2022-08-19T00:28:18.994Z,20.45
2022-08-19T00:30:49.166Z,20.38
2022-08-19T00:33:20.709Z,20.88
2022-08-19T00:35:55.927Z,21.38
2022-08-19T00:38:35.020Z,19.50
2022-08-19T00:41:11.210Z,19.83
2022-08-19T00:43:42.249Z,19.77
2022-08-19T00:46:12.611Z,21.27
2022-08-19T00:48:43.178Z,20.80
2022-08-19T00:53:44.586Z,20.92
2022-08-19T00:56:18.344Z,21.42
2022-08-19T00:58:48.681Z,21.45
2022-08-19T01:01:19.100Z,21.77
2022-08-19T01:03:57.251Z,22.25
2022-08-19T01:06:31.910Z,21.02
2022-08-19T01:09:02.769Z,23.50
2022-08-19T01:11:40.577Z,22.10
2022-08-19T01:14:13.444Z,21.77
2022-08-19T01:16:44.746Z,20.55
2022-08-19T01:19:29.002Z,21.13
2022-08-19T01:22:13.097Z,22.80
2022-08-19T01:24:49.999Z,22.02
2022-08-19T01:27:23.598Z,20.30
2022-08-19T01:29:54.956Z,21.08
2022-08-19T01:32:32.506Z,21.73
2022-08-19T01:35:05.271Z,20.95
2022-08-19T01:37:47.451Z,20.50
2022-08-19T01:40:21.541Z,20.33
2022-08-19T01:42:52.534Z,20.83
2022-08-19T01:45:24.572Z,19.30
2022-08-19T01:48:02.377Z,18.63
2022-08-19T01:50:34.161Z,17.65
2022-08-19T01:53:07.945Z,18.00
2022-08-19T01:55:44.176Z,16.52
2022-08-19T01:58:24.809Z,16.73
2022-08-19T02:00:55.515Z,17.75
2022-08-19T02:03:26.222Z,18.30
2022-08-19T02:06:01.631Z,18.55
2022-08-19T02:08:32.355Z,17.17
2022-08-19T02:11:05.572Z,17.52
2022-08-19T02:13:37.991Z,17.75
2022-08-19T02:16:08.820Z,17.25
2022-08-19T02:18:38.941Z,17.70
2022-08-19T02:21:09.229Z,17.13
2022-08-19T02:23:39.818Z,17.80
2022-08-19T02:28:43.593Z,17.38
2022-08-19T02:31:16.020Z,16.25
2022-08-19T02:33:46.681Z,16.20
2022-08-19T02:36:20.550Z,17.48
2022-08-19T02:38:54.306Z,17.40
2022-08-19T02:41:31.990Z,17.75
2022-08-19T02:44:29.882Z,17.17
2022-08-19T02:46:56.527Z,17.98
2022-08-19T02:49:26.765Z,17.52
2022-08-19T02:51:56.999Z,17.35
2022-08-19T02:54:27.250Z,18.13
2022-08-19T02:57:00.010Z,18.73
2022-08-19T02:59:33.884Z,17.98
2022-08-19T03:02:04.216Z,18.75
2022-08-19T03:04:34.447Z,16.85
2022-08-19T03:07:10.523Z,19.02
2022-08-19T03:09:43.525Z,18.42
2022-08-19T03:12:16.987Z,17.95
2022-08-19T03:14:47.662Z,16.52
2022-08-19T03:17:18.152Z,15.85
2022-08-19T03:19:48.779Z,16.60
2022-08-19T03:22:18.992Z,16.55
2022-08-19T03:24:51.009Z,17.35
2022-08-19T03:27:23.792Z,16.38
2022-08-19T03:30:00.459Z,17.58
2022-08-19T03:32:32.922Z,17.52
2022-08-19T03:35:03.944Z,18.48
2022-08-19T03:37:34.667Z,18.20
2022-08-19T03:42:49.397Z,17.33
2022-08-19T03:45:20.622Z,19.33
2022-08-19T03:47:50.785Z,19.58
2022-08-19T03:50:21.174Z,19.92
2022-08-19T03:52:54.405Z,21.15
2022-08-19T03:55:24.711Z,20.08
2022-08-19T03:57:59.375Z,21.65
2022-08-19T04:00:29.633Z,21.33
2022-08-19T04:03:00.845Z,22.20
2022-08-19T04:05:32.328Z,23.98
2022-08-19T04:08:02.509Z,21.13
2022-08-19T04:10:32.768Z,25.33
2022-08-19T04:13:06.425Z,25.42
2022-08-19T04:15:40.616Z,25.70
2022-08-19T04:18:11.423Z,26.75
2022-08-19T04:20:50.846Z,26.52
2022-08-19T04:23:21.001Z,27.60
2022-08-19T04:25:51.432Z,27.30
2022-08-19T04:28:24.530Z,29.38
2022-08-19T04:30:56.959Z,28.58
2022-08-19T04:33:29.658Z,30.52
2022-08-19T04:35:59.933Z,29.05
2022-08-19T04:38:30.126Z,29.00
2022-08-19T04:41:12.739Z,28.13
2022-08-19T04:43:49.511Z,28.73
2022-08-19T04:46:39.341Z,27.70
2022-08-19T04:49:13.154Z,27.77
2022-08-19T04:51:46.841Z,30.60
2022-08-19T04:54:19.195Z,29.88
2022-08-19T04:57:09.688Z,28.98
2022-08-19T04:59:43.517Z,30.60
2022-08-19T05:02:13.901Z,29.63
2022-08-19T05:04:44.119Z,28.77
2022-08-19T05:07:14.651Z,30.38
2022-08-19T05:12:30.468Z,33.47
2022-08-19T05:15:03.854Z,38.83
2022-08-19T05:17:38.244Z,29.42
2022-08-19T05:20:23.984Z,28.92
2022-08-19T05:22:54.329Z,27.42
2022-08-19T05:25:26.877Z,26.95
2022-08-19T05:27:57.028Z,25.92
2022-08-19T05:30:42.383Z,26.38
2022-08-19T05:33:17.105Z,24.83
2022-08-19T05:35:49.409Z,24.35
2022-08-19T05:38:20.319Z,23.25
2022-08-19T05:40:50.624Z,23.40
2022-08-19T05:43:20.823Z,21.67
2022-08-19T05:45:53.790Z,21.90
2022-08-19T05:48:23.990Z,19.15
2022-08-19T05:50:54.223Z,20.42
2022-08-19T05:53:24.467Z,20.02
2022-08-19T05:55:54.609Z,20.63
2022-08-19T05:58:28.120Z,19.77
2022-08-19T06:01:05.370Z,19.00
2022-08-19T06:03:38.417Z,20.33
2022-08-19T06:06:10.065Z,19.35
2022-08-19T06:08:43.886Z,19.33
2022-08-19T06:11:21.916Z,22.52
2022-08-19T06:13:59.353Z,19.15
2022-08-19T06:16:35.023Z,19.85
2022-08-19T06:19:10.714Z,20.58
2022-08-19T06:21:44.555Z,20.25
2022-08-19T06:24:20.107Z,20.45
2022-08-19T06:26:56.685Z,18.95
2022-08-19T06:29:32.544Z,19.83
2022-08-19T06:32:07.607Z,19.30
2022-08-19T06:34:38.590Z,19.83
2022-08-19T06:37:08.835Z,18.40
2022-08-19T06:39:43.074Z,18.90
2022-08-19T06:42:17.926Z,18.17
2022-08-19T06:44:53.085Z,18.58
2022-08-19T06:47:28.869Z,18.52
2022-08-19T06:50:02.790Z,19.05
2022-08-19T06:52:34.323Z,18.23
2022-08-19T06:55:08.015Z,18.73
2022-08-19T06:57:38.504Z,17.60
2022-08-19T07:00:13.185Z,17.65
2022-08-19T07:02:52.446Z,16.08
2022-08-19T07:05:27.604Z,17.45
2022-08-19T07:08:01.608Z,16.60
2022-08-19T07:10:36.116Z,18.38
2022-08-19T07:13:07.014Z,15.80
2022-08-19T07:15:37.776Z,14.35
2022-08-19T07:18:12.707Z,14.55
2022-08-19T07:20:44.151Z,14.23
2022-08-19T07:23:16.160Z,14.15
2022-08-19T07:25:52.758Z,15.75
2022-08-19T07:28:24.932Z,14.38
2022-08-19T07:30:55.810Z,14.38
2022-08-19T07:35:59.606Z,15.65
2022-08-19T07:38:29.871Z,16.80
2022-08-19T07:41:00.023Z,16.52
2022-08-19T07:43:35.155Z,18.15
2022-08-19T07:46:05.829Z,18.30
2022-08-19T07:48:38.807Z,23.58
2022-08-19T07:51:11.943Z,24.58
2022-08-19T07:53:45.919Z,25.25
2022-08-19T07:56:17.800Z,26.15
2022-08-19T07:58:52.158Z,24.80
2022-08-19T08:01:27.593Z,24.27
2022-08-19T08:04:14.338Z,23.95
2022-08-19T08:06:57.291Z,22.45
2022-08-19T08:09:31.266Z,21.92
2022-08-19T08:12:32.995Z,21.85
2022-08-19T08:15:02.684Z,21.55
2022-08-19T08:17:49.600Z,20.35
2022-08-19T08:20:24.747Z,20.95
2022-08-19T08:23:07.350Z,19.73
2022-08-19T08:25:39.253Z,20.33
2022-08-19T08:28:11.322Z,18.45
2022-08-19T08:30:45.182Z,18.38
2022-08-19T08:36:10.620Z,19.08
2022-08-19T08:38:42.132Z,18.80
2022-08-19T08:41:23.168Z,20.42
2022-08-19T08:43:56.517Z,20.60
2022-08-19T08:46:39.211Z,20.95
2022-08-19T08:49:23.844Z,22.85
2022-08-19T08:52:03.798Z,22.05
2022-08-19T08:54:39.743Z,22.40
2022-08-19T08:57:18.369Z,22.15
2022-08-19T08:59:52.915Z,20.95
2022-08-19T09:02:23.433Z,21.70
2022-08-19T09:04:53.640Z,22.35
2022-08-19T09:07:48.329Z,22.10
2022-08-19T09:10:26.348Z,23.48
2022-08-19T09:13:09.727Z,22.77
2022-08-19T09:15:52.171Z,21.08
2022-08-19T09:18:22.418Z,22.33
2022-08-19T09:20:52.604Z,20.92
2022-08-19T09:23:26.999Z,21.92
2022-08-19T09:25:57.569Z,22.70
2022-08-19T09:28:28.726Z,21.95
2022-08-19T09:30:59.078Z,23.15
2022-08-19T09:33:30.125Z,21.67
2022-08-19T09:36:08.800Z,23.48
2022-08-19T09:38:43.436Z,22.45
2022-08-19T09:41:17.341Z,20.98
2022-08-19T09:43:53.160Z,21.88
2022-08-19T09:46:24.769Z,22.42
2022-08-19T09:48:57.911Z,22.10
2022-08-19T09:51:33.354Z,19.13
2022-08-19T09:54:11.259Z,20.05
2022-08-19T09:56:42.382Z,21.13
2022-08-19T09:59:13.236Z,19.83
2022-08-19T10:01:43.600Z,19.00
2022-08-19T10:04:19.677Z,21.15
2022-08-19T10:06:53.492Z,19.90
2022-08-19T10:09:34.488Z,20.90
2022-08-19T10:12:11.096Z,20.67
2022-08-19T10:14:41.787Z,25.08
2022-08-19T10:19:55.524Z,17.48
2022-08-19T10:22:27.200Z,17.52
2022-08-19T10:25:00.036Z,17.67
2022-08-19T10:27:32.148Z,17.95
2022-08-19T10:30:02.468Z,16.70
2022-08-19T10:35:06.992Z,17.98
2022-08-19T10:37:37.942Z,17.00
2022-08-19T10:40:22.959Z,17.45
2022-08-19T10:42:53.468Z,19.13
2022-08-19T10:47:58.345Z,21.65
2022-08-19T10:50:41.462Z,21.00
2022-08-19T10:53:12.562Z,23.60
2022-08-19T10:55:57.859Z,28.33
2022-08-19T10:58:28.053Z,33.50
2022-08-19T11:01:01.715Z,34.53
2022-08-19T11:03:32.178Z,34.78
2022-08-19T11:06:03.447Z,35.42
2022-08-19T11:08:34.543Z,30.33
2022-08-19T11:11:10.989Z,26.38
2022-08-19T11:13:45.578Z,24.85
2022-08-19T11:16:18.813Z,24.80
2022-08-19T11:18:51.476Z,23.63
2022-08-19T11:21:24.884Z,24.08
2022-08-19T11:23:58.848Z,26.88
2022-08-19T11:26:32.821Z,25.73
2022-08-19T11:29:03.809Z,26.75
2022-08-19T11:31:39.925Z,28.30
2022-08-19T11:34:14.356Z,30.02
2022-08-19T11:36:46.882Z,28.45
2022-08-19T11:39:21.136Z,30.45
2022-08-19T11:41:53.935Z,31.83
2022-08-19T11:44:24.247Z,37.15
2022-08-19T11:46:54.714Z,37.08
2022-08-19T11:51:55.348Z,34.43
2022-08-19T11:56:58.294Z,36.10
2022-08-19T11:59:28.432Z,34.67
2022-08-19T12:02:00.317Z,37.78
2022-08-19T12:07:00.410Z,34.35
2022-08-19T12:09:31.053Z,35.20
2022-08-19T12:12:03.944Z,34.70
2022-08-19T12:14:34.129Z,36.58
2022-08-19T12:17:05.983Z,35.33
2022-08-19T12:19:37.504Z,35.53
2022-08-19T12:22:08.727Z,34.63
2022-08-19T12:24:39.055Z,35.78
2022-08-19T12:27:12.830Z,34.50
2022-08-19T12:29:43.502Z,34.63
2022-08-19T12:32:13.705Z,36.40
2022-08-19T12:34:43.874Z,36.88
2022-08-19T12:37:14.770Z,36.60
2022-08-19T12:39:47.364Z,37.30
2022-08-19T12:42:20.535Z,38.90
2022-08-19T12:44:50.709Z,40.83
2022-08-19T12:47:21.540Z,42.42
2022-08-19T12:49:55.585Z,45.03
2022-08-19T12:52:28.454Z,44.47
2022-08-19T12:55:01.011Z,47.42
2022-08-19T12:57:34.234Z,44.10
2022-08-19T13:00:10.639Z,45.47
2022-08-19T13:02:42.543Z,44.85
2022-08-19T13:05:16.909Z,47.58
2022-08-19T13:07:47.575Z,41.40
